sensor_id;sensor_type;location;lat;lon;timestamp;temperature;humidity
17774;DHT22;9011;33.236;-97.118;2023-03-01T00:00:01;25.60;56.40
17774;DHT22;9011;33.236;-97.118;2023-03-01T00:02:31;25.50;56.00
17774;DHT22;9011;33.236;-97.118;2023-03-01T00:04:59;25.40;57.20
17774;DHT22;9011;33.236;-97.118;2023-03-01T00:07:28;25.30;57.50
17774;DHT22;9011;33.236;-97.118;2023-03-01T00:10:12;25.10;58.40
17774;DHT22;9011;33.236;-97.118;2023-03-01T00:12:40;25.00;59.90
17774;DHT22;9011;33.236;-97.118;2023-03-01T00:15:12;24.90;59.90
17774;DHT22;9011;33.236;-97.118;2023-03-01T00:17:40;24.80;61.60
17774;DHT22;9011;33.236;-97.118;2023-03-01T00:20:11;24.50;62.50
17774;DHT22;9011;33.236;-97.118;2023-03-01T00:22:48;24.40;64.30
17774;DHT22;9011;33.236;-97.118;2023-03-01T00:25:20;24.30;63.60
17774;DHT22;9011;33.236;-97.118;2023-03-01T00:28:00;24.10;65.30
17774;DHT22;9011;33.236;-97.118;2023-03-01T00:30:38;24.00;66.00
17774;DHT22;9011;33.236;-97.118;2023-03-01T00:33:06;23.80;66.00
17774;DHT22;9011;33.236;-97.118;2023-03-01T00:35:36;23.60;67.00
17774;DHT22;9011;33.236;-97.118;2023-03-01T00:38:05;23.40;64.40
17774;DHT22;9011;33.236;-97.118;2023-03-01T00:40:36;23.20;65.20
17774;DHT22;9011;33.236;-97.118;2023-03-01T00:43:07;23.10;66.10
17774;DHT22;9011;33.236;-97.118;2023-03-01T00:45:36;22.90;66.70
17774;DHT22;9011;33.236;-97.118;2023-03-01T00:48:05;22.70;67.10
17774;DHT22;9011;33.236;-97.118;2023-03-01T00:50:34;22.50;68.70
17774;DHT22;9011;33.236;-97.118;2023-03-01T00:53:05;22.40;68.90
17774;DHT22;9011;33.236;-97.118;2023-03-01T00:55:35;22.20;70.80
17774;DHT22;9011;33.236;-97.118;2023-03-01T00:58:08;22.00;72.50
17774;DHT22;9011;33.236;-97.118;2023-03-01T01:00:43;21.80;71.20
17774;DHT22;9011;33.236;-97.118;2023-03-01T01:03:14;21.70;71.60
17774;DHT22;9011;33.236;-97.118;2023-03-01T01:05:56;21.50;73.10
17774;DHT22;9011;33.236;-97.118;2023-03-01T01:08:31;21.40;74.40
17774;DHT22;9011;33.236;-97.118;2023-03-01T01:11:01;21.20;72.70
17774;DHT22;9011;33.236;-97.118;2023-03-01T01:13:32;21.00;73.10
17774;DHT22;9011;33.236;-97.118;2023-03-01T01:16:01;20.70;75.00
17774;DHT22;9011;33.236;-97.118;2023-03-01T01:18:30;20.70;75.40
17774;DHT22;9011;33.236;-97.118;2023-03-01T01:21:04;20.60;75.40
17774;DHT22;9011;33.236;-97.118;2023-03-01T01:23:33;20.40;77.50
17774;DHT22;9011;33.236;-97.118;2023-03-01T01:26:08;20.30;76.50
17774;DHT22;9011;33.236;-97.118;2023-03-01T01:28:37;20.30;75.70
17774;DHT22;9011;33.236;-97.118;2023-03-01T01:31:13;20.20;75.00
17774;DHT22;9011;33.236;-97.118;2023-03-01T01:33:43;20.10;74.60
17774;DHT22;9011;33.236;-97.118;2023-03-01T01:36:16;20.10;73.10
17774;DHT22;9011;33.236;-97.118;2023-03-01T01:38:46;20.00;73.40
17774;DHT22;9011;33.236;-97.118;2023-03-01T01:41:16;20.00;73.90
17774;DHT22;9011;33.236;-97.118;2023-03-01T01:44:16;19.90;74.40
17774;DHT22;9011;33.236;-97.118;2023-03-01T01:46:52;20.00;74.20
17774;DHT22;9011;33.236;-97.118;2023-03-01T01:49:33;19.90;71.70
17774;DHT22;9011;33.236;-97.118;2023-03-01T01:52:11;20.00;70.00
17774;DHT22;9011;33.236;-97.118;2023-03-01T01:54:51;20.10;69.30
17774;DHT22;9011;33.236;-97.118;2023-03-01T01:57:29;20.20;67.80
17774;DHT22;9011;33.236;-97.118;2023-03-01T02:00:14;20.20;67.80
17774;DHT22;9011;33.236;-97.118;2023-03-01T02:02:49;20.30;68.40
17774;DHT22;9011;33.236;-97.118;2023-03-01T02:05:26;20.50;67.50
17774;DHT22;9011;33.236;-97.118;2023-03-01T02:07:57;20.50;66.80
17774;DHT22;9011;33.236;-97.118;2023-03-01T02:10:27;20.50;68.00
17774;DHT22;9011;33.236;-97.118;2023-03-01T02:12:58;20.50;67.00
17774;DHT22;9011;33.236;-97.118;2023-03-01T02:15:28;20.50;66.90
17774;DHT22;9011;33.236;-97.118;2023-03-01T02:18:00;20.60;66.50
17774;DHT22;9011;33.236;-97.118;2023-03-01T02:20:34;20.60;67.20
17774;DHT22;9011;33.236;-97.118;2023-03-01T02:23:05;20.60;66.80
17774;DHT22;9011;33.236;-97.118;2023-03-01T02:25:40;20.70;66.50
17774;DHT22;9011;33.236;-97.118;2023-03-01T02:28:21;20.70;66.60
17774;DHT22;9011;33.236;-97.118;2023-03-01T02:30:51;20.60;66.20
17774;DHT22;9011;33.236;-97.118;2023-03-01T02:33:38;20.60;67.20
17774;DHT22;9011;33.236;-97.118;2023-03-01T02:36:09;20.60;68.10
17774;DHT22;9011;33.236;-97.118;2023-03-01T02:38:40;20.50;66.60
17774;DHT22;9011;33.236;-97.118;2023-03-01T02:41:09;20.50;68.60
17774;DHT22;9011;33.236;-97.118;2023-03-01T02:43:41;20.40;68.00
17774;DHT22;9011;33.236;-97.118;2023-03-01T02:46:15;20.40;68.00
17774;DHT22;9011;33.236;-97.118;2023-03-01T02:48:45;20.40;68.80
17774;DHT22;9011;33.236;-97.118;2023-03-01T02:51:40;20.30;67.90
17774;DHT22;9011;33.236;-97.118;2023-03-01T02:54:18;20.30;68.60
17774;DHT22;9011;33.236;-97.118;2023-03-01T02:57:22;20.30;69.60
17774;DHT22;9011;33.236;-97.118;2023-03-01T03:18:32;20.00;70.10
17774;DHT22;9011;33.236;-97.118;2023-03-01T03:21:48;20.00;71.20
17774;DHT22;9011;33.236;-97.118;2023-03-01T03:28:12;20.10;73.00
17774;DHT22;9011;33.236;-97.118;2023-03-01T03:41:22;20.20;76.10
17774;DHT22;9011;33.236;-97.118;2023-03-01T03:43:58;20.30;76.50
17774;DHT22;9011;33.236;-97.118;2023-03-01T03:49:46;20.20;77.00
17774;DHT22;9011;33.236;-97.118;2023-03-01T03:52:16;20.20;78.00
17774;DHT22;9011;33.236;-97.118;2023-03-01T03:54:45;20.20;78.40
17774;DHT22;9011;33.236;-97.118;2023-03-01T03:57:15;20.20;78.90
17774;DHT22;9011;33.236;-97.118;2023-03-01T03:59:43;20.20;79.60
17774;DHT22;9011;33.236;-97.118;2023-03-01T04:02:16;20.30;80.70
17774;DHT22;9011;33.236;-97.118;2023-03-01T04:05:06;20.30;81.80
17774;DHT22;9011;33.236;-97.118;2023-03-01T04:07:36;20.30;81.90
17774;DHT22;9011;33.236;-97.118;2023-03-01T04:10:09;20.30;83.20
17774;DHT22;9011;33.236;-97.118;2023-03-01T04:12:49;20.40;84.20
17774;DHT22;9011;33.236;-97.118;2023-03-01T04:15:22;20.40;83.80
17774;DHT22;9011;33.236;-97.118;2023-03-01T04:17:52;20.30;84.30
17774;DHT22;9011;33.236;-97.118;2023-03-01T04:20:23;20.20;84.20
17774;DHT22;9011;33.236;-97.118;2023-03-01T04:22:56;20.20;84.70
17774;DHT22;9011;33.236;-97.118;2023-03-01T04:25:31;20.10;85.50
17774;DHT22;9011;33.236;-97.118;2023-03-01T04:28:02;20.10;86.80
17774;DHT22;9011;33.236;-97.118;2023-03-01T04:30:32;20.10;87.50
17774;DHT22;9011;33.236;-97.118;2023-03-01T04:33:13;20.10;87.90
17774;DHT22;9011;33.236;-97.118;2023-03-01T04:35:44;20.00;88.50
17774;DHT22;9011;33.236;-97.118;2023-03-01T04:38:20;20.00;88.90
17774;DHT22;9011;33.236;-97.118;2023-03-01T04:40:49;20.00;90.00
17774;DHT22;9011;33.236;-97.118;2023-03-01T04:43:19;20.00;90.10
17774;DHT22;9011;33.236;-97.118;2023-03-01T04:45:48;20.00;90.50
17774;DHT22;9011;33.236;-97.118;2023-03-01T04:48:17;20.00;90.80
17774;DHT22;9011;33.236;-97.118;2023-03-01T04:50:45;20.00;91.00
17774;DHT22;9011;33.236;-97.118;2023-03-01T04:53:14;20.00;91.20
17774;DHT22;9011;33.236;-97.118;2023-03-01T04:55:43;19.90;91.30
17774;DHT22;9011;33.236;-97.118;2023-03-01T04:58:11;19.90;91.80
17774;DHT22;9011;33.236;-97.118;2023-03-01T05:00:42;19.80;92.20
17774;DHT22;9011;33.236;-97.118;2023-03-01T05:03:10;19.80;92.60
17774;DHT22;9011;33.236;-97.118;2023-03-01T05:05:39;19.80;92.90
17774;DHT22;9011;33.236;-97.118;2023-03-01T05:08:08;19.80;93.20
17774;DHT22;9011;33.236;-97.118;2023-03-01T05:10:48;19.70;93.60
17774;DHT22;9011;33.236;-97.118;2023-03-01T05:13:20;19.80;93.90
17774;DHT22;9011;33.236;-97.118;2023-03-01T05:15:55;19.80;94.40
17774;DHT22;9011;33.236;-97.118;2023-03-01T05:18:26;19.80;94.60
17774;DHT22;9011;33.236;-97.118;2023-03-01T05:21:03;19.80;95.00
17774;DHT22;9011;33.236;-97.118;2023-03-01T05:23:32;19.80;95.20
17774;DHT22;9011;33.236;-97.118;2023-03-01T05:26:02;19.90;95.50
17774;DHT22;9011;33.236;-97.118;2023-03-01T05:28:32;19.90;95.80
17774;DHT22;9011;33.236;-97.118;2023-03-01T05:31:02;19.90;95.90
17774;DHT22;9011;33.236;-97.118;2023-03-01T05:33:36;19.90;96.10
17774;DHT22;9011;33.236;-97.118;2023-03-01T05:36:05;19.90;96.40
17774;DHT22;9011;33.236;-97.118;2023-03-01T05:38:34;19.80;96.60
17774;DHT22;9011;33.236;-97.118;2023-03-01T05:41:05;19.80;96.80
17774;DHT22;9011;33.236;-97.118;2023-03-01T05:43:41;19.80;96.80
17774;DHT22;9011;33.236;-97.118;2023-03-01T05:46:13;19.80;97.10
17774;DHT22;9011;33.236;-97.118;2023-03-01T05:48:41;19.70;97.40
17774;DHT22;9011;33.236;-97.118;2023-03-01T05:51:11;19.70;97.60
17774;DHT22;9011;33.236;-97.118;2023-03-01T05:53:42;19.60;97.80
17774;DHT22;9011;33.236;-97.118;2023-03-01T05:56:16;19.60;97.90
17774;DHT22;9011;33.236;-97.118;2023-03-01T05:58:45;19.60;98.10
17774;DHT22;9011;33.236;-97.118;2023-03-01T06:01:15;19.60;98.40
17774;DHT22;9011;33.236;-97.118;2023-03-01T06:03:44;19.50;98.50
17774;DHT22;9011;33.236;-97.118;2023-03-01T06:06:12;19.50;98.80
17774;DHT22;9011;33.236;-97.118;2023-03-01T06:08:41;19.40;99.10
17774;DHT22;9011;33.236;-97.118;2023-03-01T06:11:10;19.40;99.30
17774;DHT22;9011;33.236;-97.118;2023-03-01T06:13:40;19.40;99.40
17774;DHT22;9011;33.236;-97.118;2023-03-01T06:16:09;19.40;99.80
17774;DHT22;9011;33.236;-97.118;2023-03-01T06:18:40;19.30;99.90
17774;DHT22;9011;33.236;-97.118;2023-03-01T06:21:09;19.30;99.90
17774;DHT22;9011;33.236;-97.118;2023-03-01T06:23:37;19.30;99.90
17774;DHT22;9011;33.236;-97.118;2023-03-01T06:26:07;19.30;99.90
17774;DHT22;9011;33.236;-97.118;2023-03-01T06:28:36;19.30;99.90
17774;DHT22;9011;33.236;-97.118;2023-03-01T06:31:07;19.20;99.90
17774;DHT22;9011;33.236;-97.118;2023-03-01T06:33:55;19.20;99.90
17774;DHT22;9011;33.236;-97.118;2023-03-01T06:36:27;19.20;99.90
17774;DHT22;9011;33.236;-97.118;2023-03-01T06:38:57;19.20;99.90
17774;DHT22;9011;33.236;-97.118;2023-03-01T06:41:28;19.20;99.90
17774;DHT22;9011;33.236;-97.118;2023-03-01T06:44:00;19.20;99.90
17774;DHT22;9011;33.236;-97.118;2023-03-01T06:46:29;19.20;99.90
17774;DHT22;9011;33.236;-97.118;2023-03-01T06:49:03;19.20;99.90
17774;DHT22;9011;33.236;-97.118;2023-03-01T06:51:39;19.20;99.90
17774;DHT22;9011;33.236;-97.118;2023-03-01T06:54:08;19.20;99.90
17774;DHT22;9011;33.236;-97.118;2023-03-01T06:56:36;19.20;99.90
17774;DHT22;9011;33.236;-97.118;2023-03-01T06:59:05;19.20;99.90
17774;DHT22;9011;33.236;-97.118;2023-03-01T07:01:35;19.20;99.90
17774;DHT22;9011;33.236;-97.118;2023-03-01T07:04:06;19.30;99.90
17774;DHT22;9011;33.236;-97.118;2023-03-01T07:06:45;19.30;99.90
17774;DHT22;9011;33.236;-97.118;2023-03-01T07:09:23;19.30;99.90
17774;DHT22;9011;33.236;-97.118;2023-03-01T07:11:52;19.40;99.90
17774;DHT22;9011;33.236;-97.118;2023-03-01T07:14:20;19.40;99.90
17774;DHT22;9011;33.236;-97.118;2023-03-01T07:16:50;19.40;99.90
17774;DHT22;9011;33.236;-97.118;2023-03-01T07:19:24;19.50;99.90
17774;DHT22;9011;33.236;-97.118;2023-03-01T07:22:03;19.50;99.90
17774;DHT22;9011;33.236;-97.118;2023-03-01T07:24:34;19.50;99.90
17774;DHT22;9011;33.236;-97.118;2023-03-01T07:27:02;19.50;99.90
17774;DHT22;9011;33.236;-97.118;2023-03-01T07:29:31;19.60;99.90
17774;DHT22;9011;33.236;-97.118;2023-03-01T07:32:00;19.60;99.90
17774;DHT22;9011;33.236;-97.118;2023-03-01T07:34:31;19.60;99.90
17774;DHT22;9011;33.236;-97.118;2023-03-01T07:36:59;19.60;99.90
17774;DHT22;9011;33.236;-97.118;2023-03-01T07:39:28;19.60;99.90
17774;DHT22;9011;33.236;-97.118;2023-03-01T07:42:02;19.60;99.90
17774;DHT22;9011;33.236;-97.118;2023-03-01T07:44:36;19.60;99.90
17774;DHT22;9011;33.236;-97.118;2023-03-01T07:47:13;19.60;99.90
17774;DHT22;9011;33.236;-97.118;2023-03-01T07:49:49;19.60;99.90
17774;DHT22;9011;33.236;-97.118;2023-03-01T07:52:26;19.70;99.90
17774;DHT22;9011;33.236;-97.118;2023-03-01T07:54:55;19.70;99.90
17774;DHT22;9011;33.236;-97.118;2023-03-01T07:57:42;19.70;99.90
17774;DHT22;9011;33.236;-97.118;2023-03-01T08:00:25;19.80;99.90
17774;DHT22;9011;33.236;-97.118;2023-03-01T08:02:58;19.80;99.90
17774;DHT22;9011;33.236;-97.118;2023-03-01T08:05:29;19.80;99.90
17774;DHT22;9011;33.236;-97.118;2023-03-01T08:08:04;19.70;99.90
17774;DHT22;9011;33.236;-97.118;2023-03-01T08:10:38;19.70;99.90
17774;DHT22;9011;33.236;-97.118;2023-03-01T08:13:06;19.80;99.90
17774;DHT22;9011;33.236;-97.118;2023-03-01T08:15:36;19.80;99.90
17774;DHT22;9011;33.236;-97.118;2023-03-01T08:21:16;19.80;99.90
17774;DHT22;9011;33.236;-97.118;2023-03-01T08:23:46;19.70;99.90
17774;DHT22;9011;33.236;-97.118;2023-03-01T08:26:19;19.70;99.90
17774;DHT22;9011;33.236;-97.118;2023-03-01T08:28:54;19.70;99.90
17774;DHT22;9011;33.236;-97.118;2023-03-01T08:31:25;19.70;99.90
17774;DHT22;9011;33.236;-97.118;2023-03-01T08:33:56;19.70;99.90
17774;DHT22;9011;33.236;-97.118;2023-03-01T08:36:29;19.70;99.90
17774;DHT22;9011;33.236;-97.118;2023-03-01T08:39:00;19.70;99.90
17774;DHT22;9011;33.236;-97.118;2023-03-01T08:41:29;19.70;99.90
17774;DHT22;9011;33.236;-97.118;2023-03-01T08:43:57;19.70;99.90
17774;DHT22;9011;33.236;-97.118;2023-03-01T08:46:27;19.70;99.90
17774;DHT22;9011;33.236;-97.118;2023-03-01T08:48:56;19.60;99.90
17774;DHT22;9011;33.236;-97.118;2023-03-01T08:51:26;19.60;99.90
17774;DHT22;9011;33.236;-97.118;2023-03-01T08:53:55;19.60;99.90
17774;DHT22;9011;33.236;-97.118;2023-03-01T08:56:27;19.60;99.90
17774;DHT22;9011;33.236;-97.118;2023-03-01T08:58:58;19.50;99.90
17774;DHT22;9011;33.236;-97.118;2023-03-01T09:01:26;19.50;99.90
17774;DHT22;9011;33.236;-97.118;2023-03-01T09:03:55;19.50;99.90
17774;DHT22;9011;33.236;-97.118;2023-03-01T09:06:27;19.50;99.90
17774;DHT22;9011;33.236;-97.118;2023-03-01T09:08:59;19.60;99.90
17774;DHT22;9011;33.236;-97.118;2023-03-01T09:11:28;19.60;99.90
17774;DHT22;9011;33.236;-97.118;2023-03-01T09:14:04;19.60;99.90
17774;DHT22;9011;33.236;-97.118;2023-03-01T09:16:35;19.60;99.90
17774;DHT22;9011;33.236;-97.118;2023-03-01T09:19:04;19.60;99.90
17774;DHT22;9011;33.236;-97.118;2023-03-01T09:21:34;19.60;99.90
17774;DHT22;9011;33.236;-97.118;2023-03-01T09:24:20;19.60;99.90
17774;DHT22;9011;33.236;-97.118;2023-03-01T09:26:49;19.60;99.90
17774;DHT22;9011;33.236;-97.118;2023-03-01T09:29:18;19.50;99.90
17774;DHT22;9011;33.236;-97.118;2023-03-01T09:31:46;19.60;99.90
17774;DHT22;9011;33.236;-97.118;2023-03-01T09:34:18;19.50;99.90
17774;DHT22;9011;33.236;-97.118;2023-03-01T09:36:51;19.50;99.90
17774;DHT22;9011;33.236;-97.118;2023-03-01T09:39:22;19.50;99.90
17774;DHT22;9011;33.236;-97.118;2023-03-01T09:41:57;19.50;99.90
17774;DHT22;9011;33.236;-97.118;2023-03-01T09:44:34;19.50;99.90
17774;DHT22;9011;33.236;-97.118;2023-03-01T09:47:05;19.50;99.90
17774;DHT22;9011;33.236;-97.118;2023-03-01T09:49:39;19.40;99.90
17774;DHT22;9011;33.236;-97.118;2023-03-01T09:52:23;19.30;99.90
17774;DHT22;9011;33.236;-97.118;2023-03-01T09:54:54;19.30;99.90
17774;DHT22;9011;33.236;-97.118;2023-03-01T09:57:31;19.30;99.90
17774;DHT22;9011;33.236;-97.118;2023-03-01T10:00:11;19.30;99.90
17774;DHT22;9011;33.236;-97.118;2023-03-01T10:02:44;19.20;99.90
17774;DHT22;9011;33.236;-97.118;2023-03-01T10:05:29;19.20;99.90
17774;DHT22;9011;33.236;-97.118;2023-03-01T10:08:17;19.20;99.90
17774;DHT22;9011;33.236;-97.118;2023-03-01T10:10:49;19.20;99.90
17774;DHT22;9011;33.236;-97.118;2023-03-01T10:13:23;19.10;99.90
17774;DHT22;9011;33.236;-97.118;2023-03-01T10:15:55;19.20;99.90
17774;DHT22;9011;33.236;-97.118;2023-03-01T10:18:26;19.10;99.90
17774;DHT22;9011;33.236;-97.118;2023-03-01T10:20:58;19.10;99.90
17774;DHT22;9011;33.236;-97.118;2023-03-01T10:23:32;19.00;99.90
17774;DHT22;9011;33.236;-97.118;2023-03-01T10:26:21;19.00;99.90
17774;DHT22;9011;33.236;-97.118;2023-03-01T10:29:01;19.00;99.90
17774;DHT22;9011;33.236;-97.118;2023-03-01T10:31:42;19.00;99.90
17774;DHT22;9011;33.236;-97.118;2023-03-01T10:34:13;18.90;99.90
17774;DHT22;9011;33.236;-97.118;2023-03-01T10:36:43;18.90;99.90
17774;DHT22;9011;33.236;-97.118;2023-03-01T10:39:16;18.90;99.90
17774;DHT22;9011;33.236;-97.118;2023-03-01T10:42:04;18.80;99.90
17774;DHT22;9011;33.236;-97.118;2023-03-01T10:44:38;18.90;99.90
17774;DHT22;9011;33.236;-97.118;2023-03-01T10:47:17;18.90;99.90
17774;DHT22;9011;33.236;-97.118;2023-03-01T10:50:08;18.90;99.90
17774;DHT22;9011;33.236;-97.118;2023-03-01T10:52:57;18.80;99.90
17774;DHT22;9011;33.236;-97.118;2023-03-01T10:55:33;18.90;99.90
17774;DHT22;9011;33.236;-97.118;2023-03-01T10:58:17;18.90;99.90
17774;DHT22;9011;33.236;-97.118;2023-03-01T11:00:51;18.80;99.90
17774;DHT22;9011;33.236;-97.118;2023-03-01T11:03:23;18.80;99.90
17774;DHT22;9011;33.236;-97.118;2023-03-01T11:06:00;18.80;99.90
17774;DHT22;9011;33.236;-97.118;2023-03-01T11:15:44;18.70;99.90
17774;DHT22;9011;33.236;-97.118;2023-03-01T11:22:47;18.70;99.90
17774;DHT22;9011;33.236;-97.118;2023-03-01T11:47:42;18.70;99.90
17774;DHT22;9011;33.236;-97.118;2023-03-01T11:50:47;18.60;99.90
17774;DHT22;9011;33.236;-97.118;2023-03-01T12:41:33;17.50;99.90
17774;DHT22;9011;33.236;-97.118;2023-03-01T12:44:12;17.40;99.90
17774;DHT22;9011;33.236;-97.118;2023-03-01T12:46:59;17.30;99.90
17774;DHT22;9011;33.236;-97.118;2023-03-01T12:49:37;17.30;99.90
17774;DHT22;9011;33.236;-97.118;2023-03-01T12:52:13;17.30;99.90
17774;DHT22;9011;33.236;-97.118;2023-03-01T12:54:42;17.20;99.90
17774;DHT22;9011;33.236;-97.118;2023-03-01T12:57:17;17.30;99.90
17774;DHT22;9011;33.236;-97.118;2023-03-01T13:00:06;17.30;99.90
17774;DHT22;9011;33.236;-97.118;2023-03-01T13:02:41;17.40;99.90
17774;DHT22;9011;33.236;-97.118;2023-03-01T13:05:33;17.40;99.90
17774;DHT22;9011;33.236;-97.118;2023-03-01T13:08:08;17.40;99.90
17774;DHT22;9011;33.236;-97.118;2023-03-01T13:10:45;17.30;99.90
17774;DHT22;9011;33.236;-97.118;2023-03-01T13:13:20;17.30;99.90
17774;DHT22;9011;33.236;-97.118;2023-03-01T13:15:49;17.20;99.90
17774;DHT22;9011;33.236;-97.118;2023-03-01T13:18:30;17.20;99.90
17774;DHT22;9011;33.236;-97.118;2023-03-01T13:21:03;17.20;99.90
17774;DHT22;9011;33.236;-97.118;2023-03-01T13:23:34;17.20;99.90
17774;DHT22;9011;33.236;-97.118;2023-03-01T13:28:56;17.10;99.90
17774;DHT22;9011;33.236;-97.118;2023-03-01T13:31:59;17.10;99.90
17774;DHT22;9011;33.236;-97.118;2023-03-01T13:37:35;17.00;99.90
17774;DHT22;9011;33.236;-97.118;2023-03-01T13:43:29;17.10;99.90
17774;DHT22;9011;33.236;-97.118;2023-03-01T13:46:00;17.20;99.90
17774;DHT22;9011;33.236;-97.118;2023-03-01T13:48:30;17.20;99.90
17774;DHT22;9011;33.236;-97.118;2023-03-01T13:51:00;17.20;99.90
17774;DHT22;9011;33.236;-97.118;2023-03-01T13:53:33;17.30;99.90
17774;DHT22;9011;33.236;-97.118;2023-03-01T13:56:08;17.30;99.90
17774;DHT22;9011;33.236;-97.118;2023-03-01T13:58:50;17.30;99.90
17774;DHT22;9011;33.236;-97.118;2023-03-01T14:01:27;17.30;99.90
17774;DHT22;9011;33.236;-97.118;2023-03-01T14:06:44;17.40;99.90
17774;DHT22;9011;33.236;-97.118;2023-03-01T14:09:17;17.40;99.90
17774;DHT22;9011;33.236;-97.118;2023-03-01T14:12:09;17.50;99.90
17774;DHT22;9011;33.236;-97.118;2023-03-01T14:14:44;17.40;99.90
17774;DHT22;9011;33.236;-97.118;2023-03-01T14:20:20;17.60;99.90
17774;DHT22;9011;33.236;-97.118;2023-03-01T14:22:50;17.60;99.90
17774;DHT22;9011;33.236;-97.118;2023-03-01T14:25:25;17.70;99.90
17774;DHT22;9011;33.236;-97.118;2023-03-01T14:27:57;17.60;99.90
17774;DHT22;9011;33.236;-97.118;2023-03-01T14:30:30;17.70;99.90
17774;DHT22;9011;33.236;-97.118;2023-03-01T14:33:01;17.80;99.90
17774;DHT22;9011;33.236;-97.118;2023-03-01T14:35:41;17.90;99.90
17774;DHT22;9011;33.236;-97.118;2023-03-01T14:38:20;18.00;99.90
17774;DHT22;9011;33.236;-97.118;2023-03-01T14:40:52;18.10;99.90
17774;DHT22;9011;33.236;-97.118;2023-03-01T14:47:32;18.50;99.90
17774;DHT22;9011;33.236;-97.118;2023-03-01T14:50:25;18.70;99.90
17774;DHT22;9011;33.236;-97.118;2023-03-01T14:53:21;18.90;99.90
17774;DHT22;9011;33.236;-97.118;2023-03-01T14:56:18;19.10;99.90
17774;DHT22;9011;33.236;-97.118;2023-03-01T14:58:59;19.30;99.90
17774;DHT22;9011;33.236;-97.118;2023-03-01T15:01:48;19.40;99.90
17774;DHT22;9011;33.236;-97.118;2023-03-01T15:04:19;19.50;99.90
17774;DHT22;9011;33.236;-97.118;2023-03-01T15:07:03;19.60;99.90
17774;DHT22;9011;33.236;-97.118;2023-03-01T15:09:34;19.70;99.90
17774;DHT22;9011;33.236;-97.118;2023-03-01T15:12:34;19.70;99.90
17774;DHT22;9011;33.236;-97.118;2023-03-01T15:15:36;19.80;99.90
17774;DHT22;9011;33.236;-97.118;2023-03-01T15:18:18;19.90;99.90
17774;DHT22;9011;33.236;-97.118;2023-03-01T15:20:53;20.00;99.90
17774;DHT22;9011;33.236;-97.118;2023-03-01T15:23:23;20.10;99.90
17774;DHT22;9011;33.236;-97.118;2023-03-01T15:25:55;20.10;99.90
17774;DHT22;9011;33.236;-97.118;2023-03-01T15:28:28;20.20;99.90
17774;DHT22;9011;33.236;-97.118;2023-03-01T15:31:00;20.40;99.90
17774;DHT22;9011;33.236;-97.118;2023-03-01T15:33:32;20.40;99.90
17774;DHT22;9011;33.236;-97.118;2023-03-01T15:36:33;20.40;99.90
17774;DHT22;9011;33.236;-97.118;2023-03-01T15:39:02;20.40;99.90
17774;DHT22;9011;33.236;-97.118;2023-03-01T15:41:46;20.60;99.90
17774;DHT22;9011;33.236;-97.118;2023-03-01T15:44:16;20.70;99.90
17774;DHT22;9011;33.236;-97.118;2023-03-01T15:46:47;20.60;99.90
17774;DHT22;9011;33.236;-97.118;2023-03-01T15:49:37;20.50;99.90
17774;DHT22;9011;33.236;-97.118;2023-03-01T15:52:12;20.70;99.90
17774;DHT22;9011;33.236;-97.118;2023-03-01T15:54:41;20.70;99.90
17774;DHT22;9011;33.236;-97.118;2023-03-01T15:57:13;20.70;99.90
17774;DHT22;9011;33.236;-97.118;2023-03-01T15:59:43;20.70;99.90
17774;DHT22;9011;33.236;-97.118;2023-03-01T16:02:16;20.90;99.90
17774;DHT22;9011;33.236;-97.118;2023-03-01T16:04:55;21.00;99.90
17774;DHT22;9011;33.236;-97.118;2023-03-01T16:07:45;21.00;99.90
17774;DHT22;9011;33.236;-97.118;2023-03-01T16:10:19;20.90;99.90
17774;DHT22;9011;33.236;-97.118;2023-03-01T16:12:50;20.90;99.90
17774;DHT22;9011;33.236;-97.118;2023-03-01T16:15:20;20.90;99.90
17774;DHT22;9011;33.236;-97.118;2023-03-01T16:17:49;21.00;99.90
17774;DHT22;9011;33.236;-97.118;2023-03-01T16:20:18;21.00;99.90
17774;DHT22;9011;33.236;-97.118;2023-03-01T16:22:47;21.00;99.90
17774;DHT22;9011;33.236;-97.118;2023-03-01T16:25:19;21.00;99.90
17774;DHT22;9011;33.236;-97.118;2023-03-01T16:27:50;21.10;99.90
17774;DHT22;9011;33.236;-97.118;2023-03-01T16:30:24;21.20;99.90
17774;DHT22;9011;33.236;-97.118;2023-03-01T16:32:54;21.20;99.90
17774;DHT22;9011;33.236;-97.118;2023-03-01T16:35:22;21.20;99.90
17774;DHT22;9011;33.236;-97.118;2023-03-01T16:37:51;21.00;99.90
17774;DHT22;9011;33.236;-97.118;2023-03-01T16:40:21;21.00;99.90
17774;DHT22;9011;33.236;-97.118;2023-03-01T16:42:52;20.90;99.90
17774;DHT22;9011;33.236;-97.118;2023-03-01T16:45:21;20.70;99.90
17774;DHT22;9011;33.236;-97.118;2023-03-01T16:47:50;20.50;99.90
17774;DHT22;9011;33.236;-97.118;2023-03-01T16:50:18;20.40;99.90
17774;DHT22;9011;33.236;-97.118;2023-03-01T16:52:47;20.20;99.90
17774;DHT22;9011;33.236;-97.118;2023-03-01T16:55:16;20.30;99.90
17774;DHT22;9011;33.236;-97.118;2023-03-01T16:57:44;20.20;99.90
17774;DHT22;9011;33.236;-97.118;2023-03-01T17:00:15;20.20;99.90
17774;DHT22;9011;33.236;-97.118;2023-03-01T17:02:44;19.90;99.90
17774;DHT22;9011;33.236;-97.118;2023-03-01T17:05:13;19.90;99.90
17774;DHT22;9011;33.236;-97.118;2023-03-01T17:07:41;19.70;99.90
17774;DHT22;9011;33.236;-97.118;2023-03-01T17:10:11;19.70;99.90
17774;DHT22;9011;33.236;-97.118;2023-03-01T17:12:39;19.50;99.90
17774;DHT22;9011;33.236;-97.118;2023-03-01T17:15:08;19.70;99.90
17774;DHT22;9011;33.236;-97.118;2023-03-01T17:17:40;19.50;99.90
17774;DHT22;9011;33.236;-97.118;2023-03-01T17:20:09;19.50;99.90
17774;DHT22;9011;33.236;-97.118;2023-03-01T17:22:38;19.60;99.90
17774;DHT22;9011;33.236;-97.118;2023-03-01T17:25:11;19.60;99.90
17774;DHT22;9011;33.236;-97.118;2023-03-01T17:27:56;19.70;99.90
17774;DHT22;9011;33.236;-97.118;2023-03-01T17:30:51;19.50;99.90
17774;DHT22;9011;33.236;-97.118;2023-03-01T17:34:04;19.50;99.90
17774;DHT22;9011;33.236;-97.118;2023-03-01T17:36:33;19.60;99.90
17774;DHT22;9011;33.236;-97.118;2023-03-01T17:39:10;19.60;99.90
17774;DHT22;9011;33.236;-97.118;2023-03-01T17:41:41;19.80;99.90
17774;DHT22;9011;33.236;-97.118;2023-03-01T17:44:10;19.70;99.90
17774;DHT22;9011;33.236;-97.118;2023-03-01T17:46:50;19.70;99.90
17774;DHT22;9011;33.236;-97.118;2023-03-01T17:49:38;19.60;99.90
17774;DHT22;9011;33.236;-97.118;2023-03-01T17:52:12;19.50;99.90
17774;DHT22;9011;33.236;-97.118;2023-03-01T17:54:47;19.20;99.90
17774;DHT22;9011;33.236;-97.118;2023-03-01T17:57:32;19.10;99.90
17774;DHT22;9011;33.236;-97.118;2023-03-01T18:00:28;19.10;99.90
17774;DHT22;9011;33.236;-97.118;2023-03-01T18:03:07;19.10;99.90
17774;DHT22;9011;33.236;-97.118;2023-03-01T18:05:46;19.00;99.90
17774;DHT22;9011;33.236;-97.118;2023-03-01T18:08:26;19.00;99.90
17774;DHT22;9011;33.236;-97.118;2023-03-01T18:11:27;19.10;99.90
17774;DHT22;9011;33.236;-97.118;2023-03-01T18:14:25;19.10;99.90
17774;DHT22;9011;33.236;-97.118;2023-03-01T18:17:13;19.10;99.90
17774;DHT22;9011;33.236;-97.118;2023-03-01T18:20:08;19.00;99.90